メインページ
METAR-TAF:

METAR-TAF

空港 :

ザンジャーン, イラン

緯度: 36-41N, 経度: 048-29E, 海抜: 1663m

現時点の気象観測

当レポートは1時間8分前の06:00(UTC)に作成
南東の風 10kt
気温 7°C
湿度 66%
気圧 1012 hPa
視程10km以上
高度2000ftの雲はほとんどない
高度3000ftの雲はほとんどない, 積乱雲.
高度3500ftの雲は散在している
高度9000ftの千切れ雲あり

METAR: OITZ 240600Z 13010KT 9999 FEW020 FEW030CB SCT035 BKN090 07/01 Q1012

時間: 11:38 (07:08 UTC)


TAF: 見つかりません

4,000以上の空港の気象観測と天気予報(METAR報とTAF報)

利用可能な観測所は地図上に黄色い丸と赤い丸で示す。

丸の上にカーソルを重ねると観測所名を参照できる。

次にクリックすると気象観測と天気予報を参照できる。

マップの切り替え:黒色「×」印の緑ボタンをクリックして拡大、「-」印の緑ボタンをクリックして縮小、緑色の三角印をクリックして隣りの地図に切り替え


METAR-TAF: